createdAt,value
2022-12-08T00:01:19.946Z,99690.50
2022-12-08T00:03:48.136Z,99685.25
2022-12-08T00:06:41.584Z,99685.25
2022-12-08T00:09:23.595Z,99686.81
2022-12-08T00:11:56.982Z,99691.09
2022-12-08T00:14:26.755Z,99689.16
2022-12-08T00:16:54.525Z,99685.56
2022-12-08T00:19:22.918Z,99693.03
2022-12-08T00:21:52.007Z,99687.81
2022-12-08T00:24:20.616Z,99682.38
2022-12-08T00:26:48.923Z,99678.69
2022-12-08T00:29:17.692Z,99676.75
2022-12-08T00:31:45.623Z,99671.28
2022-12-08T00:34:15.315Z,99668.47
2022-12-08T00:36:43.317Z,99667.59
2022-12-08T00:39:14.085Z,99669.06
2022-12-08T00:41:59.447Z,99674.03
2022-12-08T00:44:27.264Z,99661.25
2022-12-08T00:46:54.911Z,99661.25
2022-12-08T00:49:22.478Z,99650.28
2022-12-08T00:51:50.104Z,99643.31
2022-12-08T00:54:19.651Z,99645.84
2022-12-08T00:56:47.446Z,99640.66
2022-12-08T00:59:15.422Z,99631.25
2022-12-08T01:01:45.249Z,99636.09
2022-12-08T01:04:15.963Z,99631.03
2022-12-08T01:06:44.257Z,99643.66
2022-12-08T01:09:13.484Z,99631.72
2022-12-08T01:11:42.609Z,99639.19
2022-12-08T01:14:10.186Z,99625.59
2022-12-08T01:16:40.635Z,99626.56
2022-12-08T01:19:08.525Z,99637.44
2022-12-08T01:21:36.076Z,99632.22
2022-12-08T01:24:03.746Z,99637.75
2022-12-08T01:26:31.339Z,99642.13
2022-12-08T01:29:00.335Z,99633.56
2022-12-08T01:31:28.045Z,99630.06
2022-12-08T01:33:55.678Z,99637.47
2022-12-08T01:36:24.973Z,99638.41
2022-12-08T01:38:53.913Z,99632.41
2022-12-08T01:41:24.256Z,99636.69
2022-12-08T01:44:01.557Z,99646.78
2022-12-08T01:46:30.448Z,99645.03
2022-12-08T01:49:04.244Z,99640.84
2022-12-08T01:51:49.907Z,99645.91
2022-12-08T01:54:18.040Z,99643.25
2022-12-08T01:56:53.519Z,99634.94
2022-12-08T01:59:23.473Z,99634.94
2022-12-08T02:01:51.931Z,99631.41
2022-12-08T02:04:19.530Z,99629.66
2022-12-08T02:06:48.770Z,99624.53
2022-12-08T02:09:16.408Z,99623.66
2022-12-08T02:11:43.996Z,99622.19
2022-12-08T02:14:14.339Z,99621.50
2022-12-08T02:16:49.694Z,99623.47
2022-12-08T02:19:40.986Z,99610.91
2022-12-08T02:22:14.835Z,99602.56
2022-12-08T02:24:51.868Z,99603.41
2022-12-08T02:27:31.970Z,99594.88
2022-12-08T02:30:14.356Z,99602.25
2022-12-08T02:33:11.290Z,99602.09
2022-12-08T02:35:53.402Z,99596.03
2022-12-08T02:38:25.139Z,99593.50
2022-12-08T02:41:01.386Z,99590.97
2022-12-08T02:43:33.270Z,99589.44
2022-12-08T02:46:03.823Z,99588.66
2022-12-08T02:48:33.460Z,99587.88
2022-12-08T02:51:03.001Z,99584.41
2022-12-08T02:53:33.770Z,99585.94
2022-12-08T02:56:09.243Z,99574.06
2022-12-08T02:58:57.375Z,99580.69
2022-12-08T03:01:49.222Z,99570.38
2022-12-08T03:04:27.774Z,99566.13
2022-12-08T03:07:05.810Z,99558.53
2022-12-08T03:09:39.603Z,99558.53
2022-12-08T03:12:16.079Z,99551.53
2022-12-08T03:14:47.826Z,99552.69
2022-12-08T03:17:18.272Z,99551.53
2022-12-08T03:19:49.040Z,99548.06
2022-12-08T03:22:22.474Z,99549.59
2022-12-08T03:24:50.549Z,99547.84
2022-12-08T03:27:20.862Z,99547.66
2022-12-08T03:29:50.287Z,99538.91
2022-12-08T03:32:26.448Z,99537.16
2022-12-08T03:34:56.866Z,99540.44
2022-12-08T03:37:28.718Z,99532.22
2022-12-08T03:39:56.745Z,99528.81
2022-12-08T03:42:24.287Z,99523.75
2022-12-08T03:44:51.870Z,99526.88
2022-12-08T03:47:19.428Z,99526.88
2022-12-08T03:49:47.023Z,99525.78
2022-12-08T03:52:14.606Z,99528.41
2022-12-08T03:54:43.547Z,99520.81
2022-12-08T03:57:11.121Z,99520.16
2022-12-08T03:59:38.683Z,99522.00
2022-12-08T04:02:06.315Z,99513.66
2022-12-08T04:04:33.923Z,99508.78
2022-12-08T04:07:01.517Z,99508.78
2022-12-08T04:09:29.043Z,99503.06
2022-12-08T04:11:57.914Z,99504.09
2022-12-08T04:14:25.475Z,99501.22
2022-12-08T04:16:52.982Z,99502.47
2022-12-08T04:19:20.683Z,99505.06
2022-12-08T04:21:48.223Z,99505.84
2022-12-08T04:24:15.770Z,99493.22
2022-12-08T04:26:44.074Z,99494.97
2022-12-08T04:29:12.971Z,99491.47
2022-12-08T04:31:40.587Z,99488.00
2022-12-08T04:34:08.164Z,99496.31
2022-12-08T04:36:35.806Z,99492.16
2022-12-08T04:39:03.322Z,99489.75
2022-12-08T04:41:30.883Z,99487.28
2022-12-08T04:43:58.445Z,99481.53
2022-12-08T04:46:27.462Z,99479.13
2022-12-08T04:48:55.094Z,99480.66
2022-12-08T04:51:22.669Z,99478.25
2022-12-08T04:53:50.218Z,99480.00
2022-12-08T04:56:20.147Z,99476.69
2022-12-08T04:58:47.698Z,99478.44
2022-12-08T05:01:16.088Z,99479.31
2022-12-08T05:03:45.044Z,99481.94
2022-12-08T05:06:14.287Z,99478.63
2022-12-08T05:08:42.372Z,99481.94
2022-12-08T05:11:12.132Z,99477.47
2022-12-08T05:13:39.725Z,99475.13
2022-12-08T05:16:09.827Z,99486.13
2022-12-08T05:18:38.341Z,99477.84
2022-12-08T05:21:08.081Z,99475.53
2022-12-08T05:23:36.005Z,99470.25
2022-12-08T05:26:03.568Z,99477.34
2022-12-08T05:28:46.593Z,99476.69
2022-12-08T05:31:23.222Z,99462.88
2022-12-08T05:33:52.572Z,99479.56
2022-12-08T05:36:21.456Z,99482.19
2022-12-08T05:38:49.166Z,99481.91
2022-12-08T05:41:18.937Z,99475.38
2022-12-08T05:43:47.368Z,99472.94
2022-12-08T05:46:15.248Z,99470.41
2022-12-08T05:48:43.075Z,99469.47
2022-12-08T05:51:18.245Z,99467.88
2022-12-08T05:53:47.684Z,99470.41
2022-12-08T05:56:15.265Z,99476.63
2022-12-08T05:58:43.018Z,99473.50
2022-12-08T06:01:20.293Z,99471.25
2022-12-08T06:03:47.882Z,99465.50
2022-12-08T06:06:15.456Z,99467.50
2022-12-08T06:08:43.012Z,99469.16
2022-12-08T06:11:19.178Z,99460.78
2022-12-08T06:13:47.041Z,99479.41
2022-12-08T06:16:14.770Z,99476.16
2022-12-08T06:18:42.537Z,99470.31
2022-12-08T06:21:12.191Z,99464.47
2022-12-08T06:23:40.211Z,99465.25
2022-12-08T06:26:10.335Z,99459.41
2022-12-08T06:28:39.788Z,99462.72
2022-12-08T06:31:09.094Z,99470.31
2022-12-08T06:33:37.383Z,99468.00
2022-12-08T06:36:05.297Z,99462.13
2022-12-08T06:38:33.394Z,99473.41
2022-12-08T06:41:01.584Z,99474.78
2022-12-08T06:43:29.266Z,99472.53
2022-12-08T06:45:58.284Z,99477.66
2022-12-08T06:48:25.848Z,99471.75
2022-12-08T06:50:53.626Z,99475.16
2022-12-08T06:53:21.247Z,99480.41
2022-12-08T06:56:00.385Z,99486.50
2022-12-08T06:58:27.926Z,99484.06
2022-12-08T07:00:55.564Z,99477.34
2022-12-08T07:03:24.465Z,99475.88
2022-12-08T07:06:01.916Z,99481.09
2022-12-08T07:08:32.011Z,99472.72
2022-12-08T07:10:59.707Z,99477.84
2022-12-08T07:13:27.355Z,99468.41
2022-12-08T07:15:54.932Z,99473.31
2022-12-08T07:18:23.884Z,99472.59
2022-12-08T07:20:51.396Z,99479.84
2022-12-08T07:23:18.961Z,99486.97
2022-12-08T07:25:46.538Z,99483.75
2022-12-08T07:28:14.095Z,99484.44
2022-12-08T07:30:41.769Z,99478.34
2022-12-08T07:33:09.362Z,99486.03
2022-12-08T07:35:38.255Z,99486.19
2022-12-08T07:38:05.862Z,99485.16
2022-12-08T07:40:33.428Z,99487.69
2022-12-08T07:43:01.046Z,99483.59
2022-12-08T07:45:31.760Z,99487.25
2022-12-08T07:47:59.651Z,99478.69
2022-12-08T07:50:27.208Z,99482.09
2022-12-08T07:52:56.156Z,99481.31
2022-12-08T07:55:23.722Z,99470.97
2022-12-08T07:57:51.836Z,99467.81
2022-12-08T08:00:20.591Z,99467.66
2022-12-08T08:02:48.361Z,99463.44
2022-12-08T08:05:16.041Z,99462.56
2022-12-08T08:07:45.262Z,99461.03
2022-12-08T08:10:14.297Z,99459.09
2022-12-08T08:12:41.837Z,99463.97
2022-12-08T08:15:10.299Z,99456.03
2022-12-08T08:17:38.991Z,99455.94
2022-12-08T08:20:08.490Z,99458.63
2022-12-08T08:22:36.932Z,99449.63
2022-12-08T08:25:05.536Z,99450.44
2022-12-08T08:27:34.537Z,99448.75
2022-12-08T08:30:03.144Z,99447.34
2022-12-08T08:32:33.984Z,99445.50
2022-12-08T08:35:01.764Z,99456.53
2022-12-08T08:37:29.460Z,99453.06
2022-12-08T08:39:57.505Z,99463.59
2022-12-08T08:42:25.175Z,99459.25
2022-12-08T08:44:54.096Z,99458.50
2022-12-08T08:47:21.647Z,99458.56
2022-12-08T08:49:49.189Z,99463.19
2022-12-08T08:52:16.711Z,99453.19
2022-12-08T08:54:44.300Z,99450.00
2022-12-08T08:57:11.901Z,99449.38
2022-12-08T08:59:39.640Z,99451.97
2022-12-08T09:02:16.311Z,99446.19
2022-12-08T09:04:44.121Z,99446.03
2022-12-08T09:07:12.380Z,99437.16
2022-12-08T09:09:40.387Z,99434.25
2022-12-08T09:12:08.934Z,99439.78
2022-12-08T09:14:36.569Z,99439.38
2022-12-08T09:17:04.222Z,99433.56
2022-12-08T09:19:33.142Z,99434.72
2022-12-08T09:22:00.662Z,99433.28
2022-12-08T09:24:28.285Z,99432.34
2022-12-08T09:26:56.198Z,99426.59
2022-12-08T09:29:23.883Z,99429.44
2022-12-08T09:31:51.534Z,99434.16
2022-12-08T09:34:19.127Z,99432.09
2022-12-08T09:36:48.017Z,99429.78
2022-12-08T09:39:15.600Z,99429.63
2022-12-08T09:41:48.249Z,99428.75
2022-12-08T09:44:48.307Z,99427.56
2022-12-08T09:47:24.593Z,99418.84
2022-12-08T09:49:59.431Z,99425.38
2022-12-08T09:52:33.485Z,99413.34
2022-12-08T09:55:10.353Z,99415.22
2022-12-08T09:57:38.067Z,99412.13
2022-12-08T10:00:08.155Z,99406.81
2022-12-08T10:02:35.932Z,99403.97
2022-12-08T10:05:03.581Z,99396.19
2022-12-08T10:07:40.336Z,99390.53
2022-12-08T10:10:21.724Z,99389.53
2022-12-08T10:12:55.082Z,99387.81
2022-12-08T10:15:38.704Z,99386.53
2022-12-08T10:18:13.600Z,99391.34
2022-12-08T10:20:43.285Z,99387.13
2022-12-08T10:23:20.753Z,99378.78
2022-12-08T10:25:50.107Z,99381.91
2022-12-08T10:28:17.614Z,99380.03
2022-12-08T10:30:45.392Z,99372.75
2022-12-08T10:33:16.788Z,99375.28
2022-12-08T10:35:47.774Z,99377.19
2022-12-08T10:38:22.883Z,99367.34
2022-12-08T10:40:53.331Z,99367.63
2022-12-08T10:43:25.318Z,99372.16
2022-12-08T10:45:53.242Z,99379.94
2022-12-08T10:48:23.152Z,99368.91
2022-12-08T10:50:55.687Z,99362.97
2022-12-08T10:53:26.701Z,99371.69
2022-12-08T10:56:06.562Z,99366.47
2022-12-08T10:58:36.500Z,99361.69
2022-12-08T11:01:07.680Z,99356.56
2022-12-08T11:03:38.624Z,99347.47
2022-12-08T11:06:16.132Z,99340.84
2022-12-08T11:08:51.382Z,99345.25
2022-12-08T11:11:21.103Z,99329.16
2022-12-08T11:13:54.603Z,99325.19
2022-12-08T11:16:24.412Z,99330.09
2022-12-08T11:18:58.078Z,99327.59
2022-12-08T11:21:36.705Z,99332.31
2022-12-08T11:24:22.639Z,99320.56
2022-12-08T11:26:53.451Z,99315.28
2022-12-08T11:29:21.353Z,99316.16
2022-12-08T11:31:54.711Z,99317.66
2022-12-08T11:34:31.593Z,99321.13
2022-12-08T11:37:00.165Z,99314.47
2022-12-08T11:39:33.186Z,99321.72
2022-12-08T11:42:07.713Z,99312.06
2022-12-08T11:44:41.854Z,99308.28
2022-12-08T11:47:16.082Z,99307.59
2022-12-08T11:52:23.562Z,99300.59
2022-12-08T11:54:58.424Z,99303.34
2022-12-08T11:57:29.351Z,99301.25
2022-12-08T11:59:59.000Z,99296.00
2022-12-08T12:02:29.807Z,99288.81
2022-12-08T12:05:03.339Z,99285.59
2022-12-08T12:07:38.327Z,99296.00
2022-12-08T12:10:27.911Z,99293.28
2022-12-08T12:13:17.408Z,99286.41
2022-12-08T12:16:18.447Z,99282.34
2022-12-08T12:18:48.384Z,99284.22
2022-12-08T12:21:21.637Z,99276.78
2022-12-08T12:23:54.557Z,99270.16
2022-12-08T12:26:25.927Z,99274.59
2022-12-08T12:28:58.433Z,99271.34
2022-12-08T12:31:29.147Z,99280.84
2022-12-08T12:34:07.211Z,99274.13
2022-12-08T12:36:48.152Z,99269.81
2022-12-08T12:39:19.100Z,99262.44
2022-12-08T12:41:51.806Z,99264.38
2022-12-08T12:44:44.269Z,99261.06
2022-12-08T12:47:15.574Z,99266.16
2022-12-08T12:49:52.293Z,99259.28
2022-12-08T12:52:42.421Z,99259.53
2022-12-08T12:55:53.952Z,99253.16
2022-12-08T12:58:37.147Z,99254.06
2022-12-08T13:01:53.131Z,99251.94
2022-12-08T13:04:21.311Z,99249.81
2022-12-08T13:06:51.293Z,99247.66
2022-12-08T13:09:24.351Z,99251.31
2022-12-08T13:11:55.082Z,99246.66
2022-12-08T13:14:31.457Z,99248.28
2022-12-08T13:17:01.080Z,99248.44
2022-12-08T13:19:32.851Z,99253.16
2022-12-08T13:22:01.228Z,99248.16
2022-12-08T13:24:33.118Z,99251.66
2022-12-08T13:27:35.308Z,99241.53
2022-12-08T13:30:42.723Z,99251.19
2022-12-08T13:33:18.464Z,99253.91
2022-12-08T13:35:52.292Z,99247.50
2022-12-08T13:38:21.697Z,99240.66
2022-12-08T13:40:51.371Z,99233.19
2022-12-08T13:43:24.101Z,99238.28
2022-12-08T13:55:49.799Z,99229.78
2022-12-08T13:57:32.841Z,99234.06
2022-12-08T14:00:03.027Z,99236.72
2022-12-08T14:02:47.832Z,99246.91
2022-12-08T14:05:19.049Z,99246.56
2022-12-08T14:07:50.463Z,99239.72
2022-12-08T14:10:21.865Z,99236.16
2022-12-08T14:12:56.347Z,99233.59
2022-12-08T14:15:26.278Z,99232.78
2022-12-08T14:17:57.853Z,99230.06
2022-12-08T14:20:27.550Z,99234.19
2022-12-08T14:22:55.597Z,99231.72
2022-12-08T14:25:24.289Z,99232.69
2022-12-08T14:27:59.564Z,99236.28
2022-12-08T14:30:32.063Z,99230.91
2022-12-08T14:33:03.082Z,99236.88
2022-12-08T14:35:32.911Z,99235.78
2022-12-08T14:38:02.609Z,99233.81
2022-12-08T14:40:34.672Z,99233.91
2022-12-08T14:43:14.915Z,99238.28
2022-12-08T14:45:50.721Z,99237.50
2022-12-08T14:48:27.756Z,99240.16
2022-12-08T14:51:01.644Z,99247.59
2022-12-08T14:53:36.565Z,99243.00
2022-12-08T14:56:09.077Z,99238.09
2022-12-08T14:58:36.694Z,99235.56
2022-12-08T15:01:10.196Z,99239.00
2022-12-08T15:03:39.228Z,99240.78
2022-12-08T15:06:09.262Z,99240.78
2022-12-08T15:08:53.498Z,99238.28
2022-12-08T15:11:36.073Z,99241.75
2022-12-08T15:14:04.150Z,99236.59
2022-12-08T15:16:39.119Z,99233.81
2022-12-08T15:19:17.931Z,99229.41
2022-12-08T15:21:47.145Z,99230.22
2022-12-08T15:24:16.616Z,99226.88
2022-12-08T15:26:46.692Z,99226.72
2022-12-08T15:29:20.697Z,99227.72
2022-12-08T15:31:48.458Z,99224.19
2022-12-08T15:34:17.415Z,99232.63
2022-12-08T15:36:45.672Z,99226.63
2022-12-08T15:39:31.184Z,99228.19
2022-12-08T15:41:59.416Z,99230.47
2022-12-08T15:44:27.403Z,99222.88
2022-12-08T15:46:55.094Z,99222.97
2022-12-08T15:49:25.010Z,99228.84
2022-12-08T15:52:01.947Z,99221.59
2022-12-08T15:54:38.039Z,99220.84
2022-12-08T15:57:35.962Z,99221.88
2022-12-08T15:59:54.051Z,99216.22
2022-12-08T16:02:23.017Z,99215.91
2022-12-08T16:05:40.180Z,99220.03
2022-12-08T16:07:41.957Z,99211.34
2022-12-08T16:10:15.828Z,99209.44
2022-12-08T16:15:55.546Z,99210.09
2022-12-08T16:18:29.318Z,99212.34
2022-12-08T16:21:39.975Z,99211.34
2022-12-08T16:23:46.406Z,99207.13
2022-12-08T16:26:28.611Z,99204.41
2022-12-08T16:29:03.431Z,99202.53
2022-12-08T16:31:31.200Z,99197.22
2022-12-08T16:33:58.796Z,99198.72
2022-12-08T16:36:27.721Z,99195.97
2022-12-08T16:38:55.353Z,99194.75
2022-12-08T16:41:40.450Z,99191.13
2022-12-08T16:44:08.319Z,99191.66
2022-12-08T16:46:36.305Z,99190.03
2022-12-08T16:49:04.224Z,99185.75
2022-12-08T16:51:33.126Z,99180.63
2022-12-08T16:54:00.863Z,99177.03
2022-12-08T16:56:32.979Z,99176.16
2022-12-08T16:59:01.895Z,99176.88
2022-12-08T17:01:29.832Z,99176.69
2022-12-08T17:06:46.500Z,99186.44
2022-12-08T17:09:14.215Z,99178.59
2022-12-08T17:11:43.633Z,99179.38
2022-12-08T17:14:12.009Z,99170.69
2022-12-08T17:16:39.779Z,99174.91
2022-12-08T17:19:07.755Z,99168.94
2022-12-08T17:21:35.367Z,99173.06
2022-12-08T17:24:04.569Z,99170.44
2022-12-08T17:26:32.307Z,99172.78
2022-12-08T17:29:01.216Z,99175.25
2022-12-08T17:31:30.835Z,99178.59
2022-12-08T17:33:59.593Z,99171.66
2022-12-08T17:36:27.237Z,99168.09
2022-12-08T17:38:55.566Z,99175.69
2022-12-08T17:41:24.518Z,99174.00
2022-12-08T17:43:52.717Z,99173.19
2022-12-08T17:46:21.612Z,99160.28
2022-12-08T17:48:49.816Z,99167.91
2022-12-08T17:51:17.655Z,99164.50
2022-12-08T17:53:45.578Z,99167.91
2022-12-08T17:56:16.348Z,99158.66
2022-12-08T17:58:47.586Z,99171.31
2022-12-08T18:01:18.846Z,99164.56
2022-12-08T18:03:46.524Z,99172.84
2022-12-08T18:06:14.124Z,99179.69
2022-12-08T18:08:41.667Z,99174.63
2022-12-08T18:11:14.203Z,99174.47
2022-12-08T18:13:41.874Z,99176.19
2022-12-08T18:16:10.835Z,99177.81
2022-12-08T18:18:38.469Z,99176.88
2022-12-08T18:21:06.329Z,99176.88
2022-12-08T18:23:34.329Z,99177.81
2022-12-08T18:26:02.013Z,99178.69
2022-12-08T18:28:29.621Z,99177.56
2022-12-08T18:30:57.220Z,99176.69
2022-12-08T18:33:26.774Z,99166.38
2022-12-08T18:35:54.389Z,99174.06
2022-12-08T18:38:21.934Z,99174.22
2022-12-08T18:40:49.540Z,99173.41
2022-12-08T18:43:17.089Z,99169.94
2022-12-08T18:45:45.434Z,99170.66
2022-12-08T18:48:13.032Z,99164.72
2022-12-08T18:50:44.644Z,99163.91
2022-12-08T18:53:12.204Z,99158.16
2022-12-08T18:55:39.710Z,99159.16
2022-12-08T18:58:07.403Z,99158.16
2022-12-08T19:00:34.915Z,99158.97
2022-12-08T19:03:02.736Z,99152.88
2022-12-08T19:05:30.287Z,99162.13
2022-12-08T19:07:59.226Z,99153.75
2022-12-08T19:10:27.009Z,99148.66
2022-12-08T19:12:54.595Z,99154.59
2022-12-08T19:15:22.399Z,99155.63
2022-12-08T19:17:50.020Z,99160.28
2022-12-08T19:20:17.735Z,99153.47
2022-12-08T19:22:45.330Z,99155.22
2022-12-08T19:25:14.289Z,99160.28
2022-12-08T19:27:41.976Z,99161.78
2022-12-08T19:30:11.487Z,99154.94
2022-12-08T19:32:39.045Z,99155.09
2022-12-08T19:35:07.411Z,99156.81
2022-12-08T19:37:35.658Z,99155.09
2022-12-08T19:40:21.227Z,99158.31
2022-12-08T19:43:07.857Z,99148.81
2022-12-08T19:45:36.235Z,99143.59
2022-12-08T19:48:04.077Z,99145.25
2022-12-08T19:50:37.673Z,99144.28
2022-12-08T19:53:05.990Z,99139.19
2022-12-08T19:55:33.778Z,99138.59
2022-12-08T19:58:02.769Z,99142.81
2022-12-08T20:00:31.696Z,99141.78
2022-12-08T20:03:01.622Z,99140.00
2022-12-08T20:05:30.094Z,99139.19
2022-12-08T20:07:58.044Z,99134.22
2022-12-08T20:10:29.135Z,99136.00
2022-12-08T20:13:17.884Z,99138.44
2022-12-08T20:15:47.163Z,99134.13
2022-12-08T20:18:15.935Z,99133.97
2022-12-08T20:20:45.591Z,99130.34
2022-12-08T20:23:14.436Z,99135.97
2022-12-08T20:25:44.077Z,99140.09
2022-12-08T20:28:11.776Z,99141.56
2022-12-08T20:30:40.255Z,99137.38
2022-12-08T20:33:10.998Z,99137.19
2022-12-08T20:35:38.553Z,99136.97
2022-12-08T20:38:07.375Z,99136.09
2022-12-08T20:40:35.233Z,99136.91
2022-12-08T20:43:03.082Z,99151.34
2022-12-08T20:45:30.655Z,99139.47
2022-12-08T20:47:58.276Z,99141.84
2022-12-08T20:50:27.551Z,99133.38
2022-12-08T20:52:55.375Z,99137.31
2022-12-08T20:55:23.085Z,99131.31
2022-12-08T20:57:50.932Z,99136.41
2022-12-08T21:00:21.148Z,99133.69
2022-12-08T21:02:54.749Z,99133.69
2022-12-08T21:05:24.106Z,99142.94
2022-12-08T21:07:53.319Z,99141.69
2022-12-08T21:10:21.034Z,99131.53
2022-12-08T21:12:48.575Z,99140.81
2022-12-08T21:15:16.449Z,99139.06
2022-12-08T21:17:44.043Z,99132.13
2022-12-08T21:20:12.152Z,99129.44
2022-12-08T21:22:40.916Z,99126.56
2022-12-08T21:25:10.511Z,99130.34
2022-12-08T21:27:38.783Z,99129.03
2022-12-08T21:30:08.374Z,99123.91
2022-12-08T21:32:38.275Z,99126.06
2022-12-08T21:35:06.718Z,99129.22
2022-12-08T21:37:34.910Z,99127.22
2022-12-08T21:40:02.688Z,99120.13
2022-12-08T21:42:46.864Z,99135.81
2022-12-08T21:45:16.354Z,99132.06
2022-12-08T21:47:45.120Z,99138.63
2022-12-08T21:50:14.005Z,99132.69
2022-12-08T21:52:43.331Z,99124.81
2022-12-08T21:55:13.035Z,99137.00
2022-12-08T21:57:42.416Z,99138.28
2022-12-08T22:00:14.375Z,99138.06
2022-12-08T22:02:42.332Z,99137.13
2022-12-08T22:05:11.229Z,99130.03
2022-12-08T22:07:40.781Z,99140.84
2022-12-08T22:10:10.413Z,99135.47
2022-12-08T22:12:39.166Z,99139.44
2022-12-08T22:15:10.701Z,99140.94
2022-12-08T22:17:39.927Z,99146.81
2022-12-08T22:20:10.499Z,99138.34
2022-12-08T22:22:38.472Z,99139.75
2022-12-08T22:25:07.817Z,99138.97
2022-12-08T22:27:35.445Z,99135.09
2022-12-08T22:30:03.145Z,99138.28
2022-12-08T22:32:32.721Z,99135.66
2022-12-08T22:35:00.593Z,99135.66
2022-12-08T22:37:28.580Z,99140.56
2022-12-08T22:39:56.366Z,99132.66
2022-12-08T22:42:23.895Z,99138.16
2022-12-08T22:44:51.493Z,99128.59
2022-12-08T22:47:19.221Z,99126.50
2022-12-08T22:49:48.153Z,99122.84
2022-12-08T22:52:15.874Z,99123.28
2022-12-08T22:54:43.631Z,99117.84
2022-12-08T22:57:11.181Z,99123.47
2022-12-08T22:59:40.962Z,99121.00
2022-12-08T23:02:09.250Z,99119.50
2022-12-08T23:04:37.228Z,99113.34
2022-12-08T23:07:06.439Z,99119.81
2022-12-08T23:09:34.143Z,99109.38
2022-12-08T23:12:01.758Z,99101.59
2022-12-08T23:14:29.511Z,99106.34
2022-12-08T23:16:57.452Z,99099.13
2022-12-08T23:19:25.246Z,99103.13
2022-12-08T23:21:52.977Z,99101.25
2022-12-08T23:24:21.899Z,99104.41
2022-12-08T23:26:49.621Z,99099.16
2022-12-08T23:29:17.161Z,99098.91
2022-12-08T23:31:44.718Z,99088.56
2022-12-08T23:34:12.552Z,99093.63
2022-12-08T23:36:42.551Z,99085.78
2022-12-08T23:39:11.831Z,99080.56
2022-12-08T23:41:40.931Z,99075.50
2022-12-08T23:44:09.123Z,99070.44
2022-12-08T23:46:36.977Z,99064.34
2022-12-08T23:49:05.351Z,99059.06
2022-12-08T23:51:32.967Z,99053.75
2022-12-08T23:54:00.787Z,99052.91
2022-12-08T23:56:30.497Z,99043.47
2022-12-08T23:59:01.206Z,99052.53
